Time;durP1;ratioP1;P1;durP2;ratioP2;P2;SDS_P1;SDS_P2;PMS_P1;PMS_P2;Temp;Humidity;BMP_temperature;BMP_pressure;BME280_temperature;BME280_humidity;BME280_pressure;Samples;Min_cycle;Max_cycle;Signal;HPM_P1;HPM_P2
2022/09/03 00:02:30;;;;;;;3.50;2.20;;;19.30;95.50;;;;;;5033476;28;20720;-70
2022/09/03 00:05:18;;;;;;;3.50;2.30;;;19.30;95.80;;;;;;5050876;28;20037;-71
2022/09/03 00:08:08;;;;;;;2.67;2.08;;;19.20;95.40;;;;;;5051659;28;20043;-71
2022/09/03 00:10:37;;;;;;;2.65;2.20;;;19.20;96.90;;;;;;5051446;28;20040;-72
2022/09/03 00:13:05;;;;;;;6.00;2.30;;;19.10;96.70;;;;;;5051777;28;20485;-71
2022/09/03 00:15:33;;;;;;;5.60;2.60;;;19.10;95.80;;;;;;5050846;28;20037;-71
2022/09/03 00:18:06;;;;;;;6.63;2.40;;;19.10;95.60;;;;;;5049515;28;20051;-71
2022/09/03 00:20:32;;;;;;;5.00;2.30;;;19.20;96.10;;;;;;5047181;28;20025;-71
2022/09/03 00:23:02;;;;;;;3.70;2.30;;;19.20;95.60;;;;;;5047834;28;20029;-70
2022/09/03 00:25:39;;;;;;;6.13;2.55;;;19.10;95.40;;;;;;5038449;28;20021;-70
2022/09/03 00:28:14;;;;;;;6.88;2.20;;;19.10;95.20;;;;;;5051516;28;20032;-70
2022/09/03 00:30:45;;;;;;;3.13;2.17;;;19.10;95.30;;;;;;5050507;28;20124;-71
2022/09/03 00:33:20;;;;;;;4.85;2.45;;;19.00;95.70;;;;;;5018557;28;20500;-71
2022/09/03 00:35:54;;;;;;;5.13;2.25;;;18.80;96.20;;;;;;5033315;28;20028;-70
2022/09/03 00:38:21;;;;;;;4.75;2.60;;;18.80;96.00;;;;;;5051422;28;20021;-70
2022/09/03 00:41:20;;;;;;;3.13;2.40;;;18.80;96.70;;;;;;5051266;28;20056;-71
2022/09/03 00:44:04;;;;;;;5.18;2.47;;;18.70;96.50;;;;;;5050854;28;20033;-71
2022/09/03 00:47:02;;;;;;;5.07;2.35;;;18.60;97.70;;;;;;5050975;28;20021;-72
2022/09/03 00:50:13;;;;;;;5.95;2.67;;;18.60;97.00;;;;;;4998946;28;20520;-70
2022/09/03 00:53:00;;;;;;;4.32;2.40;;;18.60;98.20;;;;;;5002651;28;20168;-70
2022/09/03 00:55:40;;;;;;;4.75;2.67;;;18.60;96.40;;;;;;5037348;28;20021;-71
2022/09/03 00:58:33;;;;;;;5.10;2.70;;;18.60;96.00;;;;;;5020922;28;20040;-70
2022/09/03 01:01:09;;;;;;;6.10;2.42;;;18.50;96.20;;;;;;5046912;28;20031;-71
2022/09/03 01:04:14;;;;;;;3.50;2.42;;;18.50;96.70;;;;;;5039816;28;20044;-71
2022/09/03 01:07:04;;;;;;;4.05;3.17;;;18.50;96.70;;;;;;5017830;28;20033;-71
2022/09/03 01:09:35;;;;;;;4.57;2.35;;;18.60;96.90;;;;;;5018853;28;20079;-71
2022/09/03 01:12:16;;;;;;;5.70;2.72;;;18.50;96.50;;;;;;5050426;28;20150;-71
2022/09/03 01:14:54;;;;;;;5.22;2.78;;;18.50;96.10;;;;;;5049707;28;20033;-70
2022/09/03 01:17:43;;;;;;;2.88;2.42;;;18.50;95.80;;;;;;5048787;28;20044;-70
2022/09/03 01:20:27;;;;;;;7.03;2.85;;;18.50;96.10;;;;;;5030249;28;20033;-70
2022/09/03 01:23:20;;;;;;;2.78;2.42;;;18.40;95.50;;;;;;5050929;28;20036;-71
2022/09/03 01:25:52;;;;;;;5.47;2.13;;;18.40;96.80;;;;;;5050334;28;20453;-72
2022/09/03 01:29:04;;;;;;;4.47;2.45;;;18.30;95.80;;;;;;5042567;28;20068;-71
2022/09/03 01:31:49;;;;;;;2.65;2.30;;;18.40;95.90;;;;;;5007258;28;20048;-71
2022/09/03 01:34:42;;;;;;;3.92;2.30;;;18.30;95.90;;;;;;5054185;28;20021;-71
2022/09/03 01:37:08;;;;;;;4.82;2.25;;;18.30;95.80;;;;;;5038607;28;20075;-71
2022/09/03 01:39:52;;;;;;;4.15;2.65;;;18.20;96.20;;;;;;5054069;28;20033;-72
2022/09/03 01:42:37;;;;;;;5.07;2.40;;;18.10;95.90;;;;;;5053821;28;20063;-71
2022/09/03 01:45:12;;;;;;;5.07;2.70;;;18.10;95.60;;;;;;5036484;28;20481;-70
2022/09/03 01:48:03;;;;;;;3.92;2.20;;;18.10;96.40;;;;;;5051230;28;20025;-70
2022/09/03 01:50:41;;;;;;;4.80;2.42;;;18.00;95.90;;;;;;5037187;28;20051;-70
2022/09/03 01:53:31;;;;;;;4.93;2.63;;;18.00;95.50;;;;;;5054003;28;20025;-70
2022/09/03 01:56:15;;;;;;;6.60;2.70;;;17.90;96.10;;;;;;5062338;28;20028;-69
2022/09/03 01:59:08;;;;;;;4.03;2.20;;;17.90;95.60;;;;;;5036871;28;20025;-69
2022/09/03 02:01:51;;;;;;;5.32;2.20;;;17.90;95.90;;;;;;5053283;28;20108;-70
2022/09/03 02:04:23;;;;;;;4.85;2.70;;;17.90;95.80;;;;;;5060872;28;20536;-70
2022/09/03 02:06:55;;;;;;;7.00;2.90;;;17.80;96.20;;;;;;5064487;28;20056;-69
2022/09/03 02:09:20;;;;;;;3.28;2.45;;;17.90;96.10;;;;;;5059833;28;20025;-69
2022/09/03 02:11:56;;;;;;;7.25;2.85;;;17.80;97.00;;;;;;5053726;28;20033;-70
2022/09/03 02:14:22;;;;;;;4.47;2.78;;;17.80;96.10;;;;;;5053992;28;20361;-70
2022/09/03 02:16:49;;;;;;;4.25;2.58;;;17.80;95.70;;;;;;5055818;28;20551;-69
2022/09/03 02:19:16;;;;;;;7.32;2.70;;;17.70;96.40;;;;;;5061149;28;20043;-70
2022/09/03 02:21:49;;;;;;;2.88;2.47;;;17.70;96.20;;;;;;5045772;28;20059;-70
2022/09/03 02:24:15;;;;;;;4.45;2.92;;;17.70;96.30;;;;;;5047354;28;20020;-70
2022/09/03 02:26:40;;;;;;;4.45;2.80;;;17.80;96.40;;;;;;5052737;28;20604;-69
2022/09/03 02:29:06;;;;;;;3.72;2.60;;;17.70;97.50;;;;;;5045613;28;20025;-70
2022/09/03 02:31:32;;;;;;;8.68;2.85;;;17.70;96.80;;;;;;5054144;28;20041;-70
2022/09/03 02:33:58;;;;;;;9.98;3.00;;;17.60;96.60;;;;;;5053896;28;20048;-69
2022/09/03 02:36:37;;;;;;;3.80;2.63;;;17.60;97.30;;;;;;5034278;28;20075;-70
2022/09/03 02:39:03;;;;;;;8.55;2.88;;;17.70;96.80;;;;;;5053716;28;20126;-69
2022/09/03 02:41:30;;;;;;;4.65;2.95;;;17.60;96.60;;;;;;5035114;28;20489;-71
2022/09/03 02:44:08;;;;;;;3.58;2.30;;;17.60;96.60;;;;;;5053642;28;20025;-70
2022/09/03 02:46:43;;;;;;;4.00;2.58;;;17.60;96.90;;;;;;5045963;28;20482;-69
2022/09/03 02:49:09;;;;;;;4.63;2.60;;;17.60;96.70;;;;;;5050363;28;20603;-70
2022/09/03 02:51:39;;;;;;;5.38;2.70;;;17.50;96.40;;;;;;5053087;28;20104;-69
2022/09/03 02:54:05;;;;;;;7.82;3.08;;;17.50;96.60;;;;;;5053718;28;20025;-70
2022/09/03 02:56:31;;;;;;;4.30;2.40;;;17.50;97.00;;;;;;5053326;28;20485;-69
2022/09/03 02:58:57;;;;;;;7.53;3.17;;;17.30;97.00;;;;;;5040656;28;20024;-69
2022/09/03 03:01:22;;;;;;;4.97;2.45;;;17.30;97.20;;;;;;5062447;28;20029;-70
2022/09/03 03:03:49;;;;;;;9.38;2.80;;;17.30;98.30;;;;;;5062973;28;20373;-70
2022/09/03 03:06:14;;;;;;;5.70;2.83;;;17.20;97.80;;;;;;5060957;28;20027;-70
2022/09/03 03:08:40;;;;;;;4.60;3.05;;;17.20;98.00;;;;;;5062289;28;20016;-70
2022/09/03 03:11:06;;;;;;;4.15;2.63;;;17.20;98.40;;;;;;5060555;28;20079;-70
2022/09/03 03:13:32;;;;;;;4.90;2.80;;;17.20;98.60;;;;;;5058038;28;20561;-70
2022/09/03 03:16:00;;;;;;;3.10;2.70;;;17.20;98.40;;;;;;5043834;28;20052;-70
2022/09/03 03:18:27;;;;;;;2.97;2.58;;;17.20;97.60;;;;;;5045202;28;20044;-70
2022/09/03 03:20:53;;;;;;;3.13;2.53;;;17.30;98.60;;;;;;5059221;28;20091;-70
2022/09/03 03:23:19;;;;;;;5.38;3.00;;;17.30;98.30;;;;;;5061895;28;20571;-70
2022/09/03 03:25:45;;;;;;;3.95;2.75;;;17.20;99.50;;;;;;5061636;28;20380;-70
2022/09/03 03:28:12;;;;;;;3.42;2.45;;;17.10;99.70;;;;;;5042701;28;20032;-70
2022/09/03 03:30:38;;;;;;;3.85;2.92;;;17.00;99.90;;;;;;5050495;28;20032;-70
2022/09/03 03:33:05;;;;;;;3.88;2.45;;;17.00;99.40;;;;;;5052312;28;20029;-70
2022/09/03 03:35:31;;;;;;;7.25;2.90;;;17.00;99.80;;;;;;5034693;28;20107;-69
2022/09/03 03:37:57;;;;;;;5.50;3.17;;;17.00;99.30;;;;;;5052737;28;20120;-70
2022/09/03 03:40:24;;;;;;;4.97;2.90;;;17.00;99.30;;;;;;5052413;28;20492;-70
2022/09/03 03:42:49;;;;;;;5.43;2.72;;;17.10;98.80;;;;;;5052400;28;20091;-70
2022/09/03 03:45:16;;;;;;;7.38;2.70;;;17.10;98.80;;;;;;5052600;28;20762;-70
2022/09/03 03:47:42;;;;;;;4.00;2.65;;;17.10;98.30;;;;;;5034458;28;20017;-69
2022/09/03 03:50:08;;;;;;;7.30;2.72;;;17.10;98.70;;;;;;5040640;28;20080;-70
2022/09/03 03:52:33;;;;;;;3.70;2.88;;;17.20;99.30;;;;;;5048571;28;20017;-70
2022/09/03 03:54:59;;;;;;;5.78;2.80;;;17.10;98.90;;;;;;5051565;28;20048;-69
2022/09/03 03:57:28;;;;;;;4.20;2.80;;;17.20;99.20;;;;;;5045769;28;20106;-70
2022/09/03 03:59:54;;;;;;;3.38;3.00;;;17.20;99.30;;;;;;5040673;28;20024;-70
2022/09/03 04:02:20;;;;;;;5.18;3.10;;;17.10;99.70;;;;;;5046051;28;20615;-70
2022/09/03 04:04:46;;;;;;;5.50;3.35;;;17.20;99.70;;;;;;5051059;28;20030;-69
2022/09/03 04:07:11;;;;;;;4.90;2.80;;;17.20;99.10;;;;;;5052301;28;20017;-69
2022/09/03 04:09:37;;;;;;;4.28;3.05;;;17.10;99.40;;;;;;5052070;28;20580;-70
2022/09/03 04:12:07;;;;;;;5.05;3.30;;;17.10;99.40;;;;;;5034483;28;20037;-69
2022/09/03 04:14:34;;;;;;;4.72;2.60;;;17.10;99.90;;;;;;5052762;28;20044;-70
2022/09/03 04:17:00;;;;;;;3.17;2.97;;;17.10;99.80;;;;;;5052339;28;20057;-70
2022/09/03 04:19:28;;;;;;;5.47;3.00;;;17.20;99.40;;;;;;5045574;28;21303;-70
2022/09/03 04:21:54;;;;;;;3.60;3.05;;;17.20;99.00;;;;;;5036090;28;20033;-70
2022/09/03 04:24:19;;;;;;;6.07;3.05;;;17.20;99.80;;;;;;5046007;28;20024;-71
2022/09/03 04:26:46;;;;;;;7.07;2.92;;;17.20;99.60;;;;;;5051070;28;20029;-70
2022/09/03 04:29:11;;;;;;;6.72;2.83;;;17.20;99.90;;;;;;5051423;28;20096;-71
2022/09/03 04:31:38;;;;;;;5.47;2.90;;;17.20;99.90;;;;;;5051834;28;20120;-71
2022/09/03 04:34:07;;;;;;;6.15;3.20;;;17.20;99.90;;;;;;5051983;28;20343;-70
2022/09/03 04:36:33;;;;;;;3.35;2.88;;;17.20;99.90;;;;;;5051965;28;20127;-71
2022/09/03 04:39:03;;;;;;;5.10;2.80;;;17.20;99.90;;;;;;5051573;28;20021;-70
2022/09/03 04:41:30;;;;;;;4.05;3.22;;;17.20;99.90;;;;;;5051533;28;20028;-70
2022/09/03 04:43:58;;;;;;;3.97;2.88;;;17.20;99.90;;;;;;5051609;28;20112;-70
2022/09/03 04:46:27;;;;;;;5.30;3.15;;;17.20;99.90;;;;;;5050741;28;20025;-70
2022/09/03 04:48:54;;;;;;;7.68;2.72;;;17.20;99.90;;;;;;5050908;28;20104;-70
2022/09/03 04:51:23;;;;;;;4.07;2.65;;;17.20;99.90;;;;;;5052108;28;20033;-70
2022/09/03 04:53:55;;;;;;;4.25;2.60;;;17.20;99.80;;;;;;5050850;28;20466;-69
2022/09/03 04:56:26;;;;;;;8.40;3.17;;;17.20;99.70;;;;;;5050968;28;20033;-69
2022/09/03 04:58:57;;;;;;;9.40;3.15;;;17.20;99.70;;;;;;5054160;28;20074;-70
2022/09/03 05:01:26;;;;;;;7.25;3.50;;;17.20;99.90;;;;;;5044139;28;20052;-71
2022/09/03 05:03:52;;;;;;;14.82;4.00;;;17.20;99.90;;;;;;5061503;28;20025;-72
2022/09/03 05:06:18;;;;;;;14.10;4.15;;;17.20;99.90;;;;;;5060170;28;20025;-70
2022/09/03 05:08:48;;;;;;;10.98;3.33;;;17.20;99.90;;;;;;5061783;28;20017;-72
2022/09/03 05:11:14;;;;;;;16.52;3.97;;;17.20;99.90;;;;;;5063200;28;20104;-70
2022/09/03 05:13:41;;;;;;;15.25;3.63;;;17.30;99.90;;;;;;5060980;28;20500;-70
2022/09/03 05:16:09;;;;;;;17.13;3.80;;;17.30;99.50;;;;;;5061457;28;20480;-71
2022/09/03 05:18:36;;;;;;;21.27;4.20;;;17.30;99.70;;;;;;5061926;28;20481;-70
2022/09/03 05:21:04;;;;;;;16.33;3.75;;;17.30;99.90;;;;;;5056778;28;20459;-70
2022/09/03 05:23:30;;;;;;;23.42;4.00;;;17.20;99.90;;;;;;5060264;28;20029;-71
2022/09/03 05:26:01;;;;;;;21.58;4.25;;;17.30;99.80;;;;;;5060996;28;20021;-71
2022/09/03 05:28:29;;;;;;;20.55;4.38;;;17.30;99.80;;;;;;5062230;28;20021;-71
2022/09/03 05:31:05;;;;;;;14.38;3.30;;;17.30;99.50;;;;;;5061258;28;20048;-71
2022/09/03 05:33:39;;;;;;;19.88;4.03;;;17.40;99.60;;;;;;5058978;28;20021;-72
2022/09/03 05:36:07;;;;;;;19.63;4.10;;;17.40;99.60;;;;;;5059541;28;20414;-72
2022/09/03 05:38:33;;;;;;;18.27;3.67;;;17.40;99.80;;;;;;5061718;28;20429;-70
2022/09/03 05:41:04;;;;;;;16.05;3.70;;;17.40;99.50;;;;;;5062030;28;20025;-70
2022/09/03 05:43:31;;;;;;;20.05;4.05;;;17.40;99.90;;;;;;5061863;28;20052;-70
2022/09/03 05:46:18;;;;;;;10.80;3.90;;;17.30;99.90;;;;;;5060588;28;20054;-70
2022/09/03 05:48:44;;;;;;;18.17;3.85;;;17.30;99.90;;;;;;5052265;28;20100;-69
2022/09/03 05:51:15;;;;;;;12.45;3.33;;;17.40;99.90;;;;;;5060013;28;20104;-70
2022/09/03 05:53:46;;;;;;;20.75;3.60;;;17.40;99.90;;;;;;5062606;28;20020;-70
2022/09/03 05:56:16;;;;;;;13.75;3.40;;;17.50;99.90;;;;;;5061839;28;20037;-70
2022/09/03 05:58:45;;;;;;;13.18;3.33;;;17.50;99.90;;;;;;5060395;28;20017;-69
2022/09/03 06:01:30;;;;;;;16.50;4.00;;;17.60;99.90;;;;;;5061686;28;20024;-69
2022/09/03 06:04:04;;;;;;;10.50;3.92;;;17.60;99.90;;;;;;5058494;28;20020;-69
2022/09/03 06:06:32;;;;;;;14.43;3.78;;;17.70;99.80;;;;;;5059686;28;20025;-70
2022/09/03 06:09:01;;;;;;;13.02;4.05;;;17.70;99.90;;;;;;5052062;28;20071;-69
2022/09/03 06:11:28;;;;;;;12.57;3.30;;;17.80;99.90;;;;;;5051986;28;20032;-69
2022/09/03 06:14:00;;;;;;;9.55;3.45;;;17.80;99.90;;;;;;5051739;28;20028;-69
2022/09/03 06:16:26;;;;;;;14.60;4.18;;;17.80;99.90;;;;;;5031249;28;20773;-69
2022/09/03 06:18:52;;;;;;;12.55;3.63;;;17.90;99.90;;;;;;5052772;28;20043;-70
2022/09/03 06:21:18;;;;;;;11.13;2.55;;;17.80;99.90;;;;;;5055138;28;20466;-69
2022/09/03 06:23:50;;;;;;;8.55;3.00;;;17.90;99.90;;;;;;5054928;28;20021;-69
2022/09/03 06:26:17;;;;;;;9.73;2.83;;;17.80;99.90;;;;;;5054430;28;20461;-69
2022/09/03 06:28:43;;;;;;;9.25;3.15;;;17.80;99.90;;;;;;5055478;28;20267;-69
2022/09/03 06:31:13;;;;;;;5.75;3.30;;;17.80;99.90;;;;;;5055538;28;20036;-70
2022/09/03 06:33:41;;;;;;;9.65;3.22;;;17.70;99.90;;;;;;5056009;28;20071;-70
2022/09/03 06:36:14;;;;;;;10.95;3.25;;;17.80;99.90;;;;;;5055199;28;20515;-70
2022/09/03 06:38:41;;;;;;;5.93;2.30;;;17.80;99.90;;;;;;5054238;28;20067;-69
2022/09/03 06:41:23;;;;;;;9.15;2.95;;;17.90;99.90;;;;;;5040302;28;20020;-70
2022/09/03 06:43:52;;;;;;;8.55;2.60;;;17.90;99.90;;;;;;5041158;28;20440;-70
2022/09/03 06:46:20;;;;;;;8.23;2.90;;;17.90;99.90;;;;;;5046006;28;20029;-71
2022/09/03 06:48:46;;;;;;;5.28;2.42;;;18.00;99.90;;;;;;5043173;28;20026;-71
2022/09/03 06:51:20;;;;;;;8.52;2.35;;;18.00;99.90;;;;;;5046221;28;20390;-71
2022/09/03 06:53:49;;;;;;;6.05;2.08;;;18.10;99.90;;;;;;5046386;28;20040;-71
2022/09/03 06:56:25;;;;;;;4.53;2.70;;;18.20;99.90;;;;;;5050375;28;20040;-71
2022/09/03 06:58:58;;;;;;;5.25;2.42;;;18.10;99.90;;;;;;5044148;28;20098;-70
2022/09/03 07:01:32;;;;;;;4.47;2.15;;;18.00;99.90;;;;;;5041072;28;20034;-70
2022/09/03 07:04:03;;;;;;;4.68;2.05;;;18.10;99.90;;;;;;5044005;28;20121;-70
2022/09/03 07:06:32;;;;;;;4.00;2.25;;;18.20;99.90;;;;;;5039576;28;20587;-71
2022/09/03 07:08:59;;;;;;;11.63;2.85;;;18.30;99.90;;;;;;5054172;28;20072;-71
2022/09/03 07:11:30;;;;;;;6.10;1.90;;;18.30;99.90;;;;;;5049823;28;20021;-71
2022/09/03 07:13:57;;;;;;;5.35;2.15;;;18.30;99.90;;;;;;5043486;28;20037;-70
2022/09/03 07:16:25;;;;;;;7.63;1.98;;;18.30;99.90;;;;;;5046477;28;20041;-71
2022/09/03 07:18:51;;;;;;;5.07;2.00;;;18.30;99.90;;;;;;5050406;28;20032;-70
2022/09/03 07:21:23;;;;;;;4.18;2.08;;;18.40;99.90;;;;;;5048016;28;20393;-71
2022/09/03 07:23:50;;;;;;;3.33;1.90;;;18.50;99.90;;;;;;5032628;28;20424;-69
2022/09/03 07:26:30;;;;;;;4.13;1.50;;;18.50;99.90;;;;;;5055231;28;20024;-70
2022/09/03 07:28:57;;;;;;;3.88;1.55;;;18.60;99.90;;;;;;5053706;28;20021;-70
2022/09/03 07:31:31;;;;;;;5.57;1.92;;;18.60;99.90;;;;;;5034543;28;20021;-70
2022/09/03 07:33:59;;;;;;;6.53;1.52;;;18.70;99.90;;;;;;5060086;28;20279;-70
2022/09/03 07:36:26;;;;;;;3.72;2.08;;;18.80;99.90;;;;;;5064017;28;20028;-70
2022/09/03 07:38:57;;;;;;;3.40;1.73;;;18.80;99.90;;;;;;5073831;28;20021;-69
2022/09/03 07:41:23;;;;;;;2.70;1.92;;;18.90;99.70;;;;;;5033768;28;20495;-70
2022/09/03 07:43:49;;;;;;;2.15;1.55;;;18.90;99.10;;;;;;5015528;28;20034;-72
2022/09/03 07:46:22;;;;;;;2.55;1.85;;;19.00;99.30;;;;;;5032418;28;20022;-71
2022/09/03 07:48:52;;;;;;;4.10;1.70;;;19.10;99.20;;;;;;5039971;28;20067;-70
2022/09/03 07:51:19;;;;;;;4.78;1.80;;;19.10;99.30;;;;;;5053839;28;20029;-70
2022/09/03 07:53:46;;;;;;;4.80;1.70;;;19.20;99.00;;;;;;5047104;28;20106;-70
2022/09/03 07:56:13;;;;;;;2.67;1.50;;;19.20;99.20;;;;;;5049253;28;20469;-71
2022/09/03 07:58:42;;;;;;;2.58;1.80;;;19.30;98.60;;;;;;5052847;28;20362;-72
2022/09/03 08:01:19;;;;;;;3.05;1.42;;;19.40;98.70;;;;;;5053670;28;20025;-71
2022/09/03 08:03:48;;;;;;;1.70;1.30;;;19.60;99.00;;;;;;5052584;28;20475;-70
2022/09/03 08:06:15;;;;;;;1.90;1.33;;;19.70;98.60;;;;;;5053550;28;20083;-70
2022/09/03 08:08:43;;;;;;;2.70;1.42;;;19.80;99.10;;;;;;5053105;28;20149;-71
2022/09/03 08:11:12;;;;;;;5.70;1.90;;;19.90;99.40;;;;;;5059598;28;20017;-70
2022/09/03 08:13:43;;;;;;;3.72;1.65;;;20.10;98.20;;;;;;5063634;28;20036;-70
2022/09/03 08:16:10;;;;;;;3.35;1.40;;;20.10;98.40;;;;;;5055709;28;20025;-70
2022/09/03 08:18:37;;;;;;;1.80;1.27;;;20.30;98.20;;;;;;5052233;28;20025;-70
2022/09/03 08:21:06;;;;;;;2.83;1.60;;;20.40;98.70;;;;;;5052502;28;20039;-70
2022/09/03 08:23:33;;;;;;;1.77;1.25;;;20.40;98.20;;;;;;5061939;28;20025;-70
2022/09/03 08:26:00;;;;;;;6.72;2.00;;;20.50;97.30;;;;;;5059046;28;20482;-70
2022/09/03 08:28:27;;;;;;;5.95;1.95;;;20.60;97.40;;;;;;5062348;28;20515;-70
2022/09/03 08:30:53;;;;;;;3.28;1.58;;;20.70;97.70;;;;;;5063424;28;20025;-70
2022/09/03 08:33:36;;;;;;;5.65;1.75;;;20.80;99.50;;;;;;5061793;28;20025;-70
2022/09/03 08:36:07;;;;;;;3.88;1.88;;;20.90;98.40;;;;;;5062510;28;20385;-71
2022/09/03 08:38:34;;;;;;;4.03;1.60;;;21.00;99.00;;;;;;5060507;28;20393;-70
2022/09/03 08:41:04;;;;;;;4.32;1.35;;;21.10;99.60;;;;;;5062712;28;20044;-71
2022/09/03 08:43:37;;;;;;;5.60;1.40;;;21.10;99.50;;;;;;5058953;28;20046;-70
2022/09/03 08:46:03;;;;;;;4.35;1.60;;;21.30;97.60;;;;;;5058599;28;20036;-70
2022/09/03 08:48:29;;;;;;;5.65;2.15;;;21.40;99.20;;;;;;5060586;28;20408;-70
2022/09/03 08:50:58;;;;;;;3.05;1.60;;;21.50;97.40;;;;;;5059692;28;20051;-70
2022/09/03 08:53:50;;;;;;;5.18;1.52;;;21.50;98.30;;;;;;5057348;28;20052;-71
2022/09/03 08:56:29;;;;;;;2.88;1.55;;;21.70;98.20;;;;;;5014086;28;20386;-70
2022/09/03 08:58:55;;;;;;;2.92;1.70;;;21.80;97.30;;;;;;5027350;28;20028;-70
2022/09/03 09:01:46;;;;;;;3.15;1.58;;;21.90;97.80;;;;;;5052745;28;20025;-72
2022/09/03 09:04:40;;;;;;;5.82;1.55;;;22.00;97.90;;;;;;5047932;28;20033;-70
2022/09/03 09:07:30;;;;;;;6.80;1.92;;;22.20;96.30;;;;;;5051697;28;20033;-70
2022/09/03 09:10:16;;;;;;;3.78;1.70;;;22.40;94.70;;;;;;5050946;28;20100;-71
2022/09/03 09:13:06;;;;;;;4.45;1.83;;;22.60;95.50;;;;;;4983966;28;20048;-70
2022/09/03 09:16:04;;;;;;;7.32;1.80;;;22.60;95.80;;;;;;5051798;28;20143;-70
2022/09/03 09:18:48;;;;;;;3.55;1.63;;;22.60;94.60;;;;;;5052018;28;20025;-71
2022/09/03 09:21:28;;;;;;;5.10;1.60;;;22.80;95.60;;;;;;5051675;28;20037;-71
2022/09/03 09:24:11;;;;;;;5.35;1.60;;;22.80;93.10;;;;;;5051446;28;20036;-71
2022/09/03 09:26:42;;;;;;;2.80;1.52;;;23.00;93.70;;;;;;5052255;28;20056;-70
2022/09/03 09:29:10;;;;;;;2.58;1.40;;;23.20;93.80;;;;;;5050664;28;20029;-71
2022/09/03 09:31:38;;;;;;;2.17;1.70;;;23.40;95.70;;;;;;5051242;28;20090;-70
2022/09/03 09:34:05;;;;;;;2.75;1.92;;;23.50;94.10;;;;;;5051493;28;20460;-70
2022/09/03 09:36:42;;;;;;;4.63;2.05;;;23.60;93.30;;;;;;5051778;28;20082;-70
2022/09/03 09:39:09;;;;;;;3.20;1.60;;;23.80;93.30;;;;;;5051819;28;20108;-70
2022/09/03 09:41:35;;;;;;;2.78;1.88;;;23.90;96.00;;;;;;5051946;28;20025;-70
2022/09/03 09:44:04;;;;;;;4.05;1.75;;;24.00;93.60;;;;;;5052141;28;20037;-71
2022/09/03 09:46:40;;;;;;;4.47;1.85;;;24.10;93.00;;;;;;5052468;28;20101;-71
2022/09/03 09:49:50;;;;;;;3.80;1.83;;;24.20;91.90;;;;;;5051365;28;20107;-70
2022/09/03 09:52:16;;;;;;;3.28;1.95;;;24.40;92.40;;;;;;4952057;28;20028;-71
2022/09/03 09:54:46;;;;;;;2.22;1.60;;;24.40;92.20;;;;;;5040603;28;20037;-71
2022/09/03 09:57:21;;;;;;;2.90;1.90;;;24.40;93.20;;;;;;5037900;28;20041;-70
2022/09/03 09:59:48;;;;;;;2.25;1.88;;;24.50;92.50;;;;;;5055859;28;20079;-70
2022/09/03 10:02:25;;;;;;;2.20;1.65;;;24.70;93.70;;;;;;5037880;28;20032;-70
2022/09/03 10:04:52;;;;;;;4.45;1.92;;;24.90;92.20;;;;;;5056314;28;20492;-71
2022/09/03 10:07:31;;;;;;;3.58;1.88;;;24.90;92.50;;;;;;5055998;28;20028;-70
2022/09/03 10:10:06;;;;;;;5.70;1.90;;;25.10;92.20;;;;;;5055820;28;20041;-70
2022/09/03 10:13:11;;;;;;;5.15;2.00;;;25.20;93.20;;;;;;5056057;28;20056;-71
2022/09/03 10:15:39;;;;;;;3.33;2.00;;;25.30;92.00;;;;;;5055325;28;20024;-70
2022/09/03 10:18:33;;;;;;;3.80;2.00;;;25.50;92.00;;;;;;5055800;28;20448;-70
2022/09/03 10:21:09;;;;;;;3.03;2.10;;;25.60;91.60;;;;;;5055565;28;20013;-71
2022/09/03 10:24:00;;;;;;;4.07;1.98;;;25.70;90.80;;;;;;5055410;28;20107;-70
2022/09/03 10:26:29;;;;;;;8.18;1.80;;;26.00;91.40;;;;;;5055519;28;20025;-71
2022/09/03 10:28:58;;;;;;;2.83;1.77;;;26.00;92.40;;;;;;5037458;28;20029;-72
2022/09/03 10:31:55;;;;;;;5.60;2.10;;;26.10;90.60;;;;;;5055199;28;20043;-71
2022/09/03 10:34:33;;;;;;;10.88;2.55;;;26.00;91.20;;;;;;5055279;28;20722;-71
2022/09/03 10:37:17;;;;;;;4.30;2.15;;;26.20;91.70;;;;;;5054702;28;20456;-71
2022/09/03 10:40:06;;;;;;;1.65;1.48;;;26.40;91.10;;;;;;5055689;28;20021;-71
2022/09/03 10:42:45;;;;;;;3.85;2.10;;;26.50;90.90;;;;;;5055263;28;20039;-71
2022/09/03 10:45:38;;;;;;;3.42;2.15;;;26.60;90.60;;;;;;5054484;28;20024;-71
2022/09/03 10:48:28;;;;;;;6.53;2.00;;;26.90;89.40;;;;;;5055223;28;20031;-71
2022/09/03 10:51:10;;;;;;;4.50;1.92;;;27.00;90.60;;;;;;5055349;28;20029;-70
2022/09/03 10:53:53;;;;;;;4.00;1.90;;;27.20;89.50;;;;;;5036904;28;20028;-71
2022/09/03 10:56:53;;;;;;;4.10;2.53;;;27.30;90.00;;;;;;5054661;28;20476;-71
2022/09/03 10:59:27;;;;;;;4.95;2.30;;;26.70;87.60;;;;;;5036581;28;20033;-70
2022/09/03 11:02:14;;;;;;;5.45;2.08;;;26.40;89.40;;;;;;5054645;28;20020;-71
2022/09/03 11:05:03;;;;;;;3.17;1.80;;;26.30;91.30;;;;;;5054738;28;20463;-72
2022/09/03 11:08:12;;;;;;;3.17;1.70;;;26.40;90.70;;;;;;5053890;28;20039;-73
2022/09/03 11:10:48;;;;;;;7.20;1.90;;;26.40;90.40;;;;;;5003856;28;20040;-71
2022/09/03 11:13:34;;;;;;;4.07;2.10;;;26.40;91.90;;;;;;5054125;28;20067;-72
2022/09/03 11:16:08;;;;;;;4.47;2.40;;;26.60;91.60;;;;;;5054385;28;20488;-72
2022/09/03 11:18:52;;;;;;;4.47;2.00;;;26.50;89.90;;;;;;5054292;28;20040;-71
2022/09/03 11:21:24;;;;;;;2.70;2.50;;;26.60;88.80;;;;;;5054453;28;20024;-70
2022/09/03 11:24:13;;;;;;;2.90;2.17;;;26.80;90.20;;;;;;5035233;28;20024;-71
2022/09/03 11:26:43;;;;;;;7.05;2.03;;;26.80;90.00;;;;;;5054139;28;20028;-73
2022/09/03 11:29:15;;;;;;;3.63;1.95;;;27.00;89.30;;;;;;5036401;28;20069;-73
2022/09/03 11:32:00;;;;;;;2.00;1.90;;;27.20;90.20;;;;;;5054068;28;20385;-72
2022/09/03 11:34:29;;;;;;;2.55;2.35;;;27.30;92.20;;;;;;5053773;28;20021;-72
2022/09/03 11:37:26;;;;;;;3.92;2.13;;;27.50;91.00;;;;;;5053990;28;20036;-72
2022/09/03 11:40:18;;;;;;;2.78;2.55;;;27.50;88.20;;;;;;5030772;28;20037;-72
2022/09/03 11:42:44;;;;;;;3.50;2.23;;;27.40;88.40;;;;;;5016165;28;20033;-72
2022/09/03 11:45:35;;;;;;;4.10;2.13;;;27.30;88.40;;;;;;5033886;28;20022;-72
2022/09/03 11:48:01;;;;;;;3.67;2.10;;;27.40;88.90;;;;;;5052405;28;20025;-71
2022/09/03 11:50:32;;;;;;;3.25;2.20;;;27.50;86.40;;;;;;5054979;28;20029;-71
2022/09/03 11:53:23;;;;;;;2.95;2.15;;;27.50;88.30;;;;;;5023802;28;20018;-71
2022/09/03 11:56:05;;;;;;;2.90;2.13;;;27.60;88.80;;;;;;5045463;28;20035;-71
2022/09/03 11:58:35;;;;;;;6.95;2.33;;;27.70;87.40;;;;;;5052401;28;20135;-72
2022/09/03 12:01:12;;;;;;;3.75;2.92;;;27.70;89.80;;;;;;5053211;28;20013;-71
2022/09/03 12:04:06;;;;;;;5.00;3.22;;;27.80;87.30;;;;;;5041224;28;20028;-71
2022/09/03 12:06:53;;;;;;;2.78;2.58;;;28.00;89.20;;;;;;5049239;28;20047;-72
2022/09/03 12:09:56;;;;;;;3.92;2.42;;;28.10;88.00;;;;;;5052329;28;20025;-72
2022/09/03 12:12:27;;;;;;;;;;;28.10;88.20;;;;;;5052532;28;20048;-72
2022/09/03 12:15:08;;;;;;;2.30;2.10;;;28.20;87.90;;;;;;5022868;28;19909;-72
2022/09/03 12:18:17;;;;;;;4.72;2.58;;;28.30;85.80;;;;;;5023992;28;20045;-72
2022/09/03 12:20:39;;;;;;;4.53;2.65;;;28.30;89.70;;;;;;5049191;28;20398;-72
2022/09/03 12:23:06;;;;;;;3.17;2.70;;;28.50;88.70;;;;;;5045793;28;20469;-72
2022/09/03 12:25:32;;;;;;;5.82;2.60;;;28.50;85.60;;;;;;5041472;28;20056;-72
2022/09/03 12:28:02;;;;;;;2.88;2.53;;;28.30;86.80;;;;;;5052037;28;20481;-72
2022/09/03 12:30:29;;;;;;;4.32;2.30;;;28.50;89.00;;;;;;5051576;28;20027;-71
2022/09/03 12:33:17;;;;;;;4.65;2.78;;;28.60;87.10;;;;;;5051692;28;20106;-71
2022/09/03 12:35:42;;;;;;;3.25;2.17;;;28.50;88.10;;;;;;5052344;28;20029;-71
2022/09/03 12:38:11;;;;;;;4.75;2.47;;;28.50;86.50;;;;;;5056725;28;20055;-71
2022/09/03 12:40:42;;;;;;;2.60;2.40;;;28.50;88.80;;;;;;5051557;28;20020;-71
2022/09/03 12:43:13;;;;;;;2.53;2.33;;;28.20;88.00;;;;;;5060470;28;20385;-71
2022/09/03 12:45:47;;;;;;;3.55;2.53;;;28.40;87.50;;;;;;5060782;28;20013;-71
2022/09/03 12:48:18;;;;;;;5.32;3.17;;;28.30;86.20;;;;;;5056299;28;20112;-71
2022/09/03 12:50:45;;;;;;;6.97;2.60;;;28.30;85.80;;;;;;5057299;28;20016;-71
2022/09/03 12:53:32;;;;;;;2.42;2.22;;;28.50;86.00;;;;;;5059931;28;20419;-71
2022/09/03 12:56:00;;;;;;;7.65;2.50;;;28.60;87.70;;;;;;5058744;28;20029;-70
2022/09/03 12:58:46;;;;;;;2.58;2.35;;;28.60;87.90;;;;;;5059645;28;20025;-70
2022/09/03 13:01:22;;;;;;;8.60;2.50;;;28.70;89.10;;;;;;5058612;28;20466;-71
2022/09/03 13:04:06;;;;;;;4.82;2.28;;;28.70;87.20;;;;;;5057947;28;20037;-71
2022/09/03 13:06:56;;;;;;;3.67;2.65;;;28.90;87.60;;;;;;5057847;28;20040;-69
2022/09/03 13:09:23;;;;;;;4.53;3.03;;;28.80;88.90;;;;;;5056981;28;20595;-70
2022/09/03 13:11:51;;;;;;;5.85;2.85;;;28.60;85.70;;;;;;5056723;28;20032;-70
2022/09/03 13:14:18;;;;;;;3.85;2.67;;;28.50;87.00;;;;;;5059687;28;20086;-70
2022/09/03 13:16:44;;;;;;;5.15;2.47;;;28.40;87.00;;;;;;5048098;28;20041;-71
2022/09/03 13:19:28;;;;;;;3.05;2.63;;;28.20;87.70;;;;;;5038875;28;20029;-71
2022/09/03 13:22:15;;;;;;;2.65;2.45;;;28.10;88.10;;;;;;5025374;28;20075;-71